sensor_id;sensor_type;location;lat;lon;timestamp;P1;durP1;ratioP1;P2;durP2;ratioP2
5273;SDS011;56254;50.956;7.010;2022-08-19T00:00:23;18.67;;;15.00;;
5273;SDS011;56254;50.956;7.010;2022-08-19T00:02:50;23.90;;;15.20;;
5273;SDS011;56254;50.956;7.010;2022-08-19T00:05:17;24.83;;;17.20;;
5273;SDS011;56254;50.956;7.010;2022-08-19T00:07:45;34.23;;;17.67;;
5273;SDS011;56254;50.956;7.010;2022-08-19T00:10:11;25.23;;;16.00;;
5273;SDS011;56254;50.956;7.010;2022-08-19T00:12:39;26.20;;;18.00;;
5273;SDS011;56254;50.956;7.010;2022-08-19T00:15:07;33.43;;;19.07;;
5273;SDS011;56254;50.956;7.010;2022-08-19T00:17:43;24.03;;;15.87;;
5273;SDS011;56254;50.956;7.010;2022-08-19T00:20:11;29.83;;;16.57;;
5273;SDS011;56254;50.956;7.010;2022-08-19T00:22:41;27.10;;;17.60;;
5273;SDS011;56254;50.956;7.010;2022-08-19T00:25:08;21.70;;;16.13;;
5273;SDS011;56254;50.956;7.010;2022-08-19T00:27:35;20.53;;;15.07;;
5273;SDS011;56254;50.956;7.010;2022-08-19T00:30:01;31.07;;;17.43;;
5273;SDS011;56254;50.956;7.010;2022-08-19T00:32:29;26.10;;;16.70;;
5273;SDS011;56254;50.956;7.010;2022-08-19T00:34:54;26.07;;;16.40;;
5273;SDS011;56254;50.956;7.010;2022-08-19T00:37:21;22.37;;;16.13;;
5273;SDS011;56254;50.956;7.010;2022-08-19T00:39:49;32.70;;;17.03;;
5273;SDS011;56254;50.956;7.010;2022-08-19T00:42:16;29.80;;;15.37;;
5273;SDS011;56254;50.956;7.010;2022-08-19T00:44:44;25.43;;;16.10;;
5273;SDS011;56254;50.956;7.010;2022-08-19T00:47:11;18.90;;;15.17;;
5273;SDS011;56254;50.956;7.010;2022-08-19T00:49:40;20.83;;;14.83;;
5273;SDS011;56254;50.956;7.010;2022-08-19T00:52:15;23.87;;;15.77;;
5273;SDS011;56254;50.956;7.010;2022-08-19T00:54:47;27.50;;;16.77;;
5273;SDS011;56254;50.956;7.010;2022-08-19T00:57:15;28.43;;;17.00;;
5273;SDS011;56254;50.956;7.010;2022-08-19T00:59:42;24.10;;;16.33;;
5273;SDS011;56254;50.956;7.010;2022-08-19T01:02:11;33.77;;;17.90;;
5273;SDS011;56254;50.956;7.010;2022-08-19T01:04:37;26.80;;;16.53;;
5273;SDS011;56254;50.956;7.010;2022-08-19T01:07:03;22.63;;;16.83;;
5273;SDS011;56254;50.956;7.010;2022-08-19T01:09:29;19.93;;;15.30;;
5273;SDS011;56254;50.956;7.010;2022-08-19T01:11:56;21.10;;;16.03;;
5273;SDS011;56254;50.956;7.010;2022-08-19T01:14:22;40.27;;;17.07;;
5273;SDS011;56254;50.956;7.010;2022-08-19T01:16:49;17.83;;;14.37;;
5273;SDS011;56254;50.956;7.010;2022-08-19T01:19:41;22.50;;;15.37;;
5273;SDS011;56254;50.956;7.010;2022-08-19T01:22:14;25.87;;;15.93;;
5273;SDS011;56254;50.956;7.010;2022-08-19T01:24:48;28.27;;;17.10;;
5273;SDS011;56254;50.956;7.010;2022-08-19T01:27:15;23.97;;;17.27;;
5273;SDS011;56254;50.956;7.010;2022-08-19T01:29:42;19.97;;;15.10;;
5273;SDS011;56254;50.956;7.010;2022-08-19T01:32:08;25.40;;;15.23;;
5273;SDS011;56254;50.956;7.010;2022-08-19T01:34:36;19.23;;;15.40;;
5273;SDS011;56254;50.956;7.010;2022-08-19T01:37:11;22.27;;;15.37;;
5273;SDS011;56254;50.956;7.010;2022-08-19T01:39:38;22.90;;;16.67;;
5273;SDS011;56254;50.956;7.010;2022-08-19T01:42:07;22.80;;;16.30;;
5273;SDS011;56254;50.956;7.010;2022-08-19T01:44:38;31.33;;;17.90;;
5273;SDS011;56254;50.956;7.010;2022-08-19T01:47:06;21.40;;;16.43;;
5273;SDS011;56254;50.956;7.010;2022-08-19T01:49:34;29.30;;;17.20;;
5273;SDS011;56254;50.956;7.010;2022-08-19T01:52:02;24.67;;;16.53;;
5273;SDS011;56254;50.956;7.010;2022-08-19T01:54:29;23.47;;;17.73;;
5273;SDS011;56254;50.956;7.010;2022-08-19T01:57:02;25.37;;;17.90;;
5273;SDS011;56254;50.956;7.010;2022-08-19T01:59:32;23.83;;;17.90;;
5273;SDS011;56254;50.956;7.010;2022-08-19T02:02:00;25.63;;;17.93;;
5273;SDS011;56254;50.956;7.010;2022-08-19T02:04:26;25.33;;;17.57;;
5273;SDS011;56254;50.956;7.010;2022-08-19T02:06:52;25.43;;;18.77;;
5273;SDS011;56254;50.956;7.010;2022-08-19T02:09:18;31.70;;;19.53;;
5273;SDS011;56254;50.956;7.010;2022-08-19T02:11:44;28.33;;;17.93;;
5273;SDS011;56254;50.956;7.010;2022-08-19T02:14:09;25.30;;;17.70;;
5273;SDS011;56254;50.956;7.010;2022-08-19T02:16:36;27.40;;;19.37;;
5273;SDS011;56254;50.956;7.010;2022-08-19T02:19:02;24.43;;;18.67;;
5273;SDS011;56254;50.956;7.010;2022-08-19T02:21:29;25.57;;;19.00;;
5273;SDS011;56254;50.956;7.010;2022-08-19T02:23:55;23.63;;;19.87;;
5273;SDS011;56254;50.956;7.010;2022-08-19T02:26:22;23.27;;;17.87;;
5273;SDS011;56254;50.956;7.010;2022-08-19T02:28:51;27.50;;;18.70;;
5273;SDS011;56254;50.956;7.010;2022-08-19T02:31:19;30.77;;;21.33;;
5273;SDS011;56254;50.956;7.010;2022-08-19T02:33:47;31.10;;;20.27;;
5273;SDS011;56254;50.956;7.010;2022-08-19T02:36:14;26.70;;;19.77;;
5273;SDS011;56254;50.956;7.010;2022-08-19T02:38:41;25.53;;;19.00;;
5273;SDS011;56254;50.956;7.010;2022-08-19T02:41:10;27.73;;;20.20;;
5273;SDS011;56254;50.956;7.010;2022-08-19T02:43:39;26.50;;;20.83;;
5273;SDS011;56254;50.956;7.010;2022-08-19T02:46:15;27.53;;;21.60;;
5273;SDS011;56254;50.956;7.010;2022-08-19T02:48:48;31.97;;;21.50;;
5273;SDS011;56254;50.956;7.010;2022-08-19T02:51:16;31.13;;;22.47;;
5273;SDS011;56254;50.956;7.010;2022-08-19T02:53:48;31.53;;;20.30;;
5273;SDS011;56254;50.956;7.010;2022-08-19T02:56:14;29.67;;;21.40;;
5273;SDS011;56254;50.956;7.010;2022-08-19T02:58:40;31.97;;;22.10;;
5273;SDS011;56254;50.956;7.010;2022-08-19T03:01:06;31.80;;;21.37;;
5273;SDS011;56254;50.956;7.010;2022-08-19T03:03:32;29.23;;;22.13;;
5273;SDS011;56254;50.956;7.010;2022-08-19T03:06:05;36.03;;;22.60;;
5273;SDS011;56254;50.956;7.010;2022-08-19T03:08:35;31.37;;;23.13;;
5273;SDS011;56254;50.956;7.010;2022-08-19T03:11:01;30.43;;;22.73;;
5273;SDS011;56254;50.956;7.010;2022-08-19T03:13:31;31.47;;;21.57;;
5273;SDS011;56254;50.956;7.010;2022-08-19T03:15:58;32.77;;;21.53;;
5273;SDS011;56254;50.956;7.010;2022-08-19T03:18:23;32.17;;;22.50;;
5273;SDS011;56254;50.956;7.010;2022-08-19T03:20:51;28.40;;;22.50;;
5273;SDS011;56254;50.956;7.010;2022-08-19T03:23:22;58.03;;;23.73;;
5273;SDS011;56254;50.956;7.010;2022-08-19T03:25:49;33.30;;;20.40;;
5273;SDS011;56254;50.956;7.010;2022-08-19T03:28:16;37.43;;;22.53;;
5273;SDS011;56254;50.956;7.010;2022-08-19T03:30:44;30.10;;;21.77;;
5273;SDS011;56254;50.956;7.010;2022-08-19T03:33:32;30.13;;;22.57;;
5273;SDS011;56254;50.956;7.010;2022-08-19T03:38:30;30.30;;;20.83;;
5273;SDS011;56254;50.956;7.010;2022-08-19T03:40:57;33.73;;;21.20;;
5273;SDS011;56254;50.956;7.010;2022-08-19T03:43:23;28.47;;;22.07;;
5273;SDS011;56254;50.956;7.010;2022-08-19T03:45:58;32.17;;;21.83;;
5273;SDS011;56254;50.956;7.010;2022-08-19T03:48:33;31.30;;;22.60;;
5273;SDS011;56254;50.956;7.010;2022-08-19T03:51:00;28.33;;;20.50;;
5273;SDS011;56254;50.956;7.010;2022-08-19T03:53:26;27.20;;;20.77;;
5273;SDS011;56254;50.956;7.010;2022-08-19T03:55:53;31.03;;;22.10;;
5273;SDS011;56254;50.956;7.010;2022-08-19T03:58:20;34.50;;;22.03;;
5273;SDS011;56254;50.956;7.010;2022-08-19T04:00:47;32.90;;;22.50;;
5273;SDS011;56254;50.956;7.010;2022-08-19T04:03:13;34.07;;;23.77;;
5273;SDS011;56254;50.956;7.010;2022-08-19T04:05:38;36.13;;;21.90;;
5273;SDS011;56254;50.956;7.010;2022-08-19T04:08:04;29.63;;;22.10;;
5273;SDS011;56254;50.956;7.010;2022-08-19T04:10:31;40.70;;;23.63;;
5273;SDS011;56254;50.956;7.010;2022-08-19T04:13:01;40.07;;;23.27;;
5273;SDS011;56254;50.956;7.010;2022-08-19T04:15:28;31.47;;;23.77;;
5273;SDS011;56254;50.956;7.010;2022-08-19T04:17:58;42.63;;;23.30;;
5273;SDS011;56254;50.956;7.010;2022-08-19T04:20:24;43.57;;;22.70;;
5273;SDS011;56254;50.956;7.010;2022-08-19T04:22:49;31.17;;;22.40;;
5273;SDS011;56254;50.956;7.010;2022-08-19T04:25:15;31.30;;;21.80;;
5273;SDS011;56254;50.956;7.010;2022-08-19T04:27:41;30.13;;;21.00;;
5273;SDS011;56254;50.956;7.010;2022-08-19T04:30:17;37.33;;;21.30;;
5273;SDS011;56254;50.956;7.010;2022-08-19T04:32:44;29.60;;;21.57;;
5273;SDS011;56254;50.956;7.010;2022-08-19T04:35:09;28.93;;;20.80;;
5273;SDS011;56254;50.956;7.010;2022-08-19T04:37:35;35.33;;;21.37;;
5273;SDS011;56254;50.956;7.010;2022-08-19T04:40:01;29.70;;;20.33;;
5273;SDS011;56254;50.956;7.010;2022-08-19T04:42:47;34.00;;;22.50;;
5273;SDS011;56254;50.956;7.010;2022-08-19T04:45:14;35.37;;;20.70;;
5273;SDS011;56254;50.956;7.010;2022-08-19T04:47:41;35.70;;;20.67;;
5273;SDS011;56254;50.956;7.010;2022-08-19T04:50:09;33.37;;;21.87;;
5273;SDS011;56254;50.956;7.010;2022-08-19T04:52:36;32.73;;;21.90;;
5273;SDS011;56254;50.956;7.010;2022-08-19T04:55:07;30.03;;;21.00;;
5273;SDS011;56254;50.956;7.010;2022-08-19T04:57:37;32.20;;;23.10;;
5273;SDS011;56254;50.956;7.010;2022-08-19T05:00:05;30.10;;;21.40;;
5273;SDS011;56254;50.956;7.010;2022-08-19T05:02:33;30.47;;;22.90;;
5273;SDS011;56254;50.956;7.010;2022-08-19T05:04:59;37.93;;;22.23;;
5273;SDS011;56254;50.956;7.010;2022-08-19T05:07:25;37.13;;;22.13;;
5273;SDS011;56254;50.956;7.010;2022-08-19T05:09:52;31.17;;;21.00;;
5273;SDS011;56254;50.956;7.010;2022-08-19T05:12:18;28.97;;;21.07;;
5273;SDS011;56254;50.956;7.010;2022-08-19T05:14:44;35.40;;;23.10;;
5273;SDS011;56254;50.956;7.010;2022-08-19T05:17:11;38.43;;;21.20;;
5273;SDS011;56254;50.956;7.010;2022-08-19T05:19:37;38.43;;;22.50;;
5273;SDS011;56254;50.956;7.010;2022-08-19T05:22:21;36.30;;;22.20;;
5273;SDS011;56254;50.956;7.010;2022-08-19T05:25:07;32.27;;;23.10;;
5273;SDS011;56254;50.956;7.010;2022-08-19T05:27:35;53.87;;;29.30;;
5273;SDS011;56254;50.956;7.010;2022-08-19T05:30:01;45.00;;;29.03;;
5273;SDS011;56254;50.956;7.010;2022-08-19T05:32:28;47.47;;;30.47;;
5273;SDS011;56254;50.956;7.010;2022-08-19T05:34:54;58.40;;;30.20;;
5273;SDS011;56254;50.956;7.010;2022-08-19T05:37:20;48.73;;;32.70;;
5273;SDS011;56254;50.956;7.010;2022-08-19T05:39:46;64.73;;;35.70;;
5273;SDS011;56254;50.956;7.010;2022-08-19T05:42:14;62.83;;;37.30;;
5273;SDS011;56254;50.956;7.010;2022-08-19T05:44:41;63.27;;;38.80;;
5273;SDS011;56254;50.956;7.010;2022-08-19T05:47:09;58.93;;;37.60;;
5273;SDS011;56254;50.956;7.010;2022-08-19T05:49:37;65.10;;;38.87;;
5273;SDS011;56254;50.956;7.010;2022-08-19T05:52:04;67.10;;;40.57;;
5273;SDS011;56254;50.956;7.010;2022-08-19T05:54:32;76.67;;;42.50;;
5273;SDS011;56254;50.956;7.010;2022-08-19T05:57:00;67.23;;;42.10;;
5273;SDS011;56254;50.956;7.010;2022-08-19T05:59:33;77.87;;;44.93;;
5273;SDS011;56254;50.956;7.010;2022-08-19T06:02:00;68.93;;;40.63;;
5273;SDS011;56254;50.956;7.010;2022-08-19T06:04:26;72.33;;;44.60;;
5273;SDS011;56254;50.956;7.010;2022-08-19T06:06:52;64.87;;;40.43;;
5273;SDS011;56254;50.956;7.010;2022-08-19T06:09:19;58.23;;;38.47;;
5273;SDS011;56254;50.956;7.010;2022-08-19T06:11:46;66.50;;;39.87;;
5273;SDS011;56254;50.956;7.010;2022-08-19T06:14:17;65.50;;;37.27;;
5273;SDS011;56254;50.956;7.010;2022-08-19T06:16:46;63.60;;;36.43;;
5273;SDS011;56254;50.956;7.010;2022-08-19T06:19:16;60.60;;;37.90;;
5273;SDS011;56254;50.956;7.010;2022-08-19T06:21:45;58.83;;;36.27;;
5273;SDS011;56254;50.956;7.010;2022-08-19T06:24:15;53.60;;;34.10;;
5273;SDS011;56254;50.956;7.010;2022-08-19T06:26:44;56.90;;;36.23;;
5273;SDS011;56254;50.956;7.010;2022-08-19T06:29:12;61.70;;;36.87;;
5273;SDS011;56254;50.956;7.010;2022-08-19T06:31:42;54.27;;;33.83;;
5273;SDS011;56254;50.956;7.010;2022-08-19T06:34:09;59.27;;;34.37;;
5273;SDS011;56254;50.956;7.010;2022-08-19T06:36:37;57.53;;;32.77;;
5273;SDS011;56254;50.956;7.010;2022-08-19T06:39:17;48.80;;;30.57;;
5273;SDS011;56254;50.956;7.010;2022-08-19T06:41:46;65.60;;;31.47;;
5273;SDS011;56254;50.956;7.010;2022-08-19T06:44:14;61.63;;;30.70;;
5273;SDS011;56254;50.956;7.010;2022-08-19T06:46:41;48.10;;;31.00;;
5273;SDS011;56254;50.956;7.010;2022-08-19T06:49:07;46.20;;;30.70;;
5273;SDS011;56254;50.956;7.010;2022-08-19T06:51:42;54.03;;;31.37;;
5273;SDS011;56254;50.956;7.010;2022-08-19T06:54:09;50.03;;;31.87;;
5273;SDS011;56254;50.956;7.010;2022-08-19T06:56:36;47.03;;;29.53;;
5273;SDS011;56254;50.956;7.010;2022-08-19T06:59:03;45.57;;;27.90;;
5273;SDS011;56254;50.956;7.010;2022-08-19T07:01:37;48.47;;;29.60;;
5273;SDS011;56254;50.956;7.010;2022-08-19T07:04:06;46.80;;;28.90;;
5273;SDS011;56254;50.956;7.010;2022-08-19T07:06:34;45.33;;;28.23;;
5273;SDS011;56254;50.956;7.010;2022-08-19T07:09:07;42.87;;;27.53;;
5273;SDS011;56254;50.956;7.010;2022-08-19T07:11:34;45.73;;;29.33;;
5273;SDS011;56254;50.956;7.010;2022-08-19T07:14:00;59.23;;;29.60;;
5273;SDS011;56254;50.956;7.010;2022-08-19T07:16:27;52.70;;;29.47;;
5273;SDS011;56254;50.956;7.010;2022-08-19T07:18:53;44.40;;;27.47;;
5273;SDS011;56254;50.956;7.010;2022-08-19T07:21:22;37.20;;;24.63;;
5273;SDS011;56254;50.956;7.010;2022-08-19T07:23:51;44.13;;;26.33;;
5273;SDS011;56254;50.956;7.010;2022-08-19T07:26:24;43.23;;;26.70;;
5273;SDS011;56254;50.956;7.010;2022-08-19T07:28:52;46.63;;;28.63;;
5273;SDS011;56254;50.956;7.010;2022-08-19T07:31:20;46.00;;;27.03;;
5273;SDS011;56254;50.956;7.010;2022-08-19T07:33:48;41.47;;;27.30;;
5273;SDS011;56254;50.956;7.010;2022-08-19T07:36:16;40.00;;;24.13;;
5273;SDS011;56254;50.956;7.010;2022-08-19T07:38:44;47.50;;;23.57;;
5273;SDS011;56254;50.956;7.010;2022-08-19T07:41:14;31.00;;;19.90;;
5273;SDS011;56254;50.956;7.010;2022-08-19T07:43:41;36.40;;;21.97;;
5273;SDS011;56254;50.956;7.010;2022-08-19T07:46:10;36.03;;;24.33;;
5273;SDS011;56254;50.956;7.010;2022-08-19T07:48:38;36.80;;;23.10;;
5273;SDS011;56254;50.956;7.010;2022-08-19T07:51:07;35.90;;;23.30;;
5273;SDS011;56254;50.956;7.010;2022-08-19T07:53:35;45.50;;;25.50;;
5273;SDS011;56254;50.956;7.010;2022-08-19T07:56:02;42.70;;;25.40;;
5273;SDS011;56254;50.956;7.010;2022-08-19T07:58:33;51.43;;;27.17;;
5273;SDS011;56254;50.956;7.010;2022-08-19T08:01:04;37.83;;;25.77;;
5273;SDS011;56254;50.956;7.010;2022-08-19T08:03:32;42.90;;;27.73;;
5273;SDS011;56254;50.956;7.010;2022-08-19T08:06:17;42.03;;;27.27;;
5273;SDS011;56254;50.956;7.010;2022-08-19T08:09:03;49.03;;;28.90;;
5273;SDS011;56254;50.956;7.010;2022-08-19T08:11:49;50.00;;;28.90;;
5273;SDS011;56254;50.956;7.010;2022-08-19T08:14:19;60.57;;;31.40;;
5273;SDS011;56254;50.956;7.010;2022-08-19T08:16:48;53.20;;;30.40;;
5273;SDS011;56254;50.956;7.010;2022-08-19T08:19:16;48.67;;;29.80;;
5273;SDS011;56254;50.956;7.010;2022-08-19T08:21:43;49.97;;;30.20;;
5273;SDS011;56254;50.956;7.010;2022-08-19T08:24:11;54.03;;;32.20;;
5273;SDS011;56254;50.956;7.010;2022-08-19T08:26:37;59.70;;;30.83;;
5273;SDS011;56254;50.956;7.010;2022-08-19T08:29:03;50.70;;;31.90;;
5273;SDS011;56254;50.956;7.010;2022-08-19T08:31:29;62.30;;;32.10;;
5273;SDS011;56254;50.956;7.010;2022-08-19T08:33:55;61.40;;;32.23;;
5273;SDS011;56254;50.956;7.010;2022-08-19T08:36:21;58.23;;;34.53;;
5273;SDS011;56254;50.956;7.010;2022-08-19T08:38:47;60.87;;;33.97;;
5273;SDS011;56254;50.956;7.010;2022-08-19T08:41:35;60.23;;;35.27;;
5273;SDS011;56254;50.956;7.010;2022-08-19T08:44:02;59.40;;;34.90;;
5273;SDS011;56254;50.956;7.010;2022-08-19T08:46:38;62.03;;;34.50;;
5273;SDS011;56254;50.956;7.010;2022-08-19T08:49:17;58.50;;;32.37;;
5273;SDS011;56254;50.956;7.010;2022-08-19T08:51:54;50.47;;;31.30;;
5273;SDS011;56254;50.956;7.010;2022-08-19T08:54:36;48.93;;;32.27;;
5273;SDS011;56254;50.956;7.010;2022-08-19T08:57:29;65.83;;;34.20;;
5273;SDS011;56254;50.956;7.010;2022-08-19T09:00:47;67.83;;;35.50;;
5273;SDS011;56254;50.956;7.010;2022-08-19T09:03:22;64.17;;;36.07;;
5273;SDS011;56254;50.956;7.010;2022-08-19T09:06:04;65.43;;;39.33;;
5273;SDS011;56254;50.956;7.010;2022-08-19T09:09:01;75.97;;;37.20;;
5273;SDS011;56254;50.956;7.010;2022-08-19T09:11:35;67.37;;;37.23;;
5273;SDS011;56254;50.956;7.010;2022-08-19T09:16:57;55.17;;;33.30;;
5273;SDS011;56254;50.956;7.010;2022-08-19T09:19:24;68.33;;;34.57;;
5273;SDS011;56254;50.956;7.010;2022-08-19T09:21:50;72.30;;;38.07;;
5273;SDS011;56254;50.956;7.010;2022-08-19T09:24:16;67.40;;;33.73;;
5273;SDS011;56254;50.956;7.010;2022-08-19T09:26:42;51.60;;;30.30;;
5273;SDS011;56254;50.956;7.010;2022-08-19T09:29:11;67.20;;;34.00;;
5273;SDS011;56254;50.956;7.010;2022-08-19T09:31:37;53.23;;;31.10;;
5273;SDS011;56254;50.956;7.010;2022-08-19T09:34:03;57.13;;;29.60;;
5273;SDS011;56254;50.956;7.010;2022-08-19T09:36:31;43.13;;;26.10;;
5273;SDS011;56254;50.956;7.010;2022-08-19T09:39:03;55.37;;;27.10;;
5273;SDS011;56254;50.956;7.010;2022-08-19T09:41:30;42.50;;;25.53;;
5273;SDS011;56254;50.956;7.010;2022-08-19T09:43:58;35.43;;;21.50;;
5273;SDS011;56254;50.956;7.010;2022-08-19T09:46:26;44.60;;;26.87;;
5273;SDS011;56254;50.956;7.010;2022-08-19T09:48:53;47.63;;;27.70;;
5273;SDS011;56254;50.956;7.010;2022-08-19T09:51:22;50.87;;;30.60;;
5273;SDS011;56254;50.956;7.010;2022-08-19T09:53:49;43.60;;;26.70;;
5273;SDS011;56254;50.956;7.010;2022-08-19T09:56:17;44.73;;;23.20;;
5273;SDS011;56254;50.956;7.010;2022-08-19T09:58:44;29.40;;;19.37;;
5273;SDS011;56254;50.956;7.010;2022-08-19T10:01:15;25.73;;;17.17;;
5273;SDS011;56254;50.956;7.010;2022-08-19T10:03:43;37.57;;;19.73;;
5273;SDS011;56254;50.956;7.010;2022-08-19T10:06:14;27.70;;;19.30;;
5273;SDS011;56254;50.956;7.010;2022-08-19T10:08:40;33.10;;;21.23;;
5273;SDS011;56254;50.956;7.010;2022-08-19T10:11:11;39.60;;;20.57;;
5273;SDS011;56254;50.956;7.010;2022-08-19T10:13:43;31.03;;;18.70;;
5273;SDS011;56254;50.956;7.010;2022-08-19T10:16:14;24.10;;;15.20;;
5273;SDS011;56254;50.956;7.010;2022-08-19T10:18:44;32.30;;;16.63;;
5273;SDS011;56254;50.956;7.010;2022-08-19T10:21:12;30.10;;;15.50;;
5273;SDS011;56254;50.956;7.010;2022-08-19T10:23:44;23.50;;;15.53;;
5273;SDS011;56254;50.956;7.010;2022-08-19T10:26:13;22.27;;;13.33;;
5273;SDS011;56254;50.956;7.010;2022-08-19T10:28:41;20.80;;;13.00;;
5273;SDS011;56254;50.956;7.010;2022-08-19T10:31:12;22.20;;;14.67;;
5273;SDS011;56254;50.956;7.010;2022-08-19T10:33:45;19.83;;;12.97;;
5273;SDS011;56254;50.956;7.010;2022-08-19T10:36:16;15.47;;;9.73;;
5273;SDS011;56254;50.956;7.010;2022-08-19T10:38:44;20.77;;;13.73;;
5273;SDS011;56254;50.956;7.010;2022-08-19T10:41:12;28.70;;;16.30;;
5273;SDS011;56254;50.956;7.010;2022-08-19T10:43:42;34.80;;;16.13;;
5273;SDS011;56254;50.956;7.010;2022-08-19T10:46:10;24.20;;;15.70;;
5273;SDS011;56254;50.956;7.010;2022-08-19T10:48:38;24.07;;;15.20;;
5273;SDS011;56254;50.956;7.010;2022-08-19T10:51:04;23.57;;;15.10;;
5273;SDS011;56254;50.956;7.010;2022-08-19T10:53:50;22.93;;;17.77;;
5273;SDS011;56254;50.956;7.010;2022-08-19T10:56:16;25.67;;;17.73;;
5273;SDS011;56254;50.956;7.010;2022-08-19T10:59:01;28.10;;;18.77;;
5273;SDS011;56254;50.956;7.010;2022-08-19T11:01:28;28.03;;;18.50;;
5273;SDS011;56254;50.956;7.010;2022-08-19T11:03:55;25.93;;;17.37;;
5273;SDS011;56254;50.956;7.010;2022-08-19T11:06:30;24.63;;;15.90;;
5273;SDS011;56254;50.956;7.010;2022-08-19T11:08:57;25.70;;;15.57;;
5273;SDS011;56254;50.956;7.010;2022-08-19T11:11:25;24.60;;;15.07;;
5273;SDS011;56254;50.956;7.010;2022-08-19T11:19:41;29.17;;;18.90;;
5273;SDS011;56254;50.956;7.010;2022-08-19T11:22:08;31.03;;;19.17;;
5273;SDS011;56254;50.956;7.010;2022-08-19T11:24:35;29.23;;;17.93;;
5273;SDS011;56254;50.956;7.010;2022-08-19T11:27:07;25.90;;;18.67;;
5273;SDS011;56254;50.956;7.010;2022-08-19T11:29:34;33.93;;;18.13;;
5273;SDS011;56254;50.956;7.010;2022-08-19T11:32:04;23.97;;;16.43;;
5273;SDS011;56254;50.956;7.010;2022-08-19T11:34:32;24.90;;;17.80;;
5273;SDS011;56254;50.956;7.010;2022-08-19T11:36:58;18.60;;;14.33;;
5273;SDS011;56254;50.956;7.010;2022-08-19T11:39:25;26.50;;;16.10;;
5273;SDS011;56254;50.956;7.010;2022-08-19T11:41:52;27.13;;;16.67;;
5273;SDS011;56254;50.956;7.010;2022-08-19T11:44:53;23.73;;;15.17;;
5273;SDS011;56254;50.956;7.010;2022-08-19T11:47:32;23.50;;;17.70;;
5273;SDS011;56254;50.956;7.010;2022-08-19T11:49:58;20.80;;;15.53;;
5273;SDS011;56254;50.956;7.010;2022-08-19T11:52:24;28.07;;;14.63;;
5273;SDS011;56254;50.956;7.010;2022-08-19T11:54:50;22.10;;;15.10;;
5273;SDS011;56254;50.956;7.010;2022-08-19T11:57:16;19.93;;;13.83;;
5273;SDS011;56254;50.956;7.010;2022-08-19T11:59:42;23.63;;;14.93;;
5273;SDS011;56254;50.956;7.010;2022-08-19T12:02:12;25.30;;;15.13;;
5273;SDS011;56254;50.956;7.010;2022-08-19T12:04:40;18.50;;;12.03;;
5273;SDS011;56254;50.956;7.010;2022-08-19T12:07:06;20.57;;;12.53;;
5273;SDS011;56254;50.956;7.010;2022-08-19T12:09:31;18.63;;;10.80;;
5273;SDS011;56254;50.956;7.010;2022-08-19T12:11:59;20.73;;;12.00;;
5273;SDS011;56254;50.956;7.010;2022-08-19T12:14:26;14.80;;;11.27;;
5273;SDS011;56254;50.956;7.010;2022-08-19T12:16:52;16.57;;;11.63;;
5273;SDS011;56254;50.956;7.010;2022-08-19T12:19:19;15.93;;;12.03;;
5273;SDS011;56254;50.956;7.010;2022-08-19T12:21:44;18.80;;;12.10;;
5273;SDS011;56254;50.956;7.010;2022-08-19T12:24:10;13.60;;;9.93;;
5273;SDS011;56254;50.956;7.010;2022-08-19T12:26:36;20.97;;;12.10;;
5273;SDS011;56254;50.956;7.010;2022-08-19T12:29:02;18.50;;;11.13;;
5273;SDS011;56254;50.956;7.010;2022-08-19T12:31:28;19.60;;;13.57;;
5273;SDS011;56254;50.956;7.010;2022-08-19T12:33:54;19.70;;;11.93;;
5273;SDS011;56254;50.956;7.010;2022-08-19T12:36:20;19.20;;;12.23;;
5273;SDS011;56254;50.956;7.010;2022-08-19T12:38:47;18.27;;;10.27;;
5273;SDS011;56254;50.956;7.010;2022-08-19T12:41:13;14.07;;;9.37;;
5273;SDS011;56254;50.956;7.010;2022-08-19T12:43:42;12.40;;;9.37;;
5273;SDS011;56254;50.956;7.010;2022-08-19T12:46:08;11.13;;;9.30;;
5273;SDS011;56254;50.956;7.010;2022-08-19T12:48:35;17.30;;;10.00;;
5273;SDS011;56254;50.956;7.010;2022-08-19T12:51:12;14.30;;;9.77;;
5273;SDS011;56254;50.956;7.010;2022-08-19T12:53:40;20.57;;;10.67;;
5273;SDS011;56254;50.956;7.010;2022-08-19T12:56:06;14.20;;;9.60;;
5273;SDS011;56254;50.956;7.010;2022-08-19T12:58:34;16.43;;;9.57;;
5273;SDS011;56254;50.956;7.010;2022-08-19T13:01:05;15.20;;;9.20;;
5273;SDS011;56254;50.956;7.010;2022-08-19T13:03:35;9.70;;;8.23;;
5273;SDS011;56254;50.956;7.010;2022-08-19T13:06:02;15.70;;;10.10;;
5273;SDS011;56254;50.956;7.010;2022-08-19T13:08:27;20.03;;;9.87;;
5273;SDS011;56254;50.956;7.010;2022-08-19T13:10:53;11.70;;;9.37;;
5273;SDS011;56254;50.956;7.010;2022-08-19T13:13:19;13.90;;;9.87;;
5273;SDS011;56254;50.956;7.010;2022-08-19T13:15:45;12.43;;;9.63;;
5273;SDS011;56254;50.956;7.010;2022-08-19T13:18:11;15.47;;;10.57;;
5273;SDS011;56254;50.956;7.010;2022-08-19T13:20:37;11.57;;;9.03;;
5273;SDS011;56254;50.956;7.010;2022-08-19T13:23:05;20.87;;;11.83;;
5273;SDS011;56254;50.956;7.010;2022-08-19T13:25:32;13.13;;;10.27;;
5273;SDS011;56254;50.956;7.010;2022-08-19T13:27:58;20.47;;;12.77;;
5273;SDS011;56254;50.956;7.010;2022-08-19T13:30:24;15.87;;;10.73;;
5273;SDS011;56254;50.956;7.010;2022-08-19T13:33:09;15.43;;;10.17;;
5273;SDS011;56254;50.956;7.010;2022-08-19T13:38:18;15.90;;;11.40;;
5273;SDS011;56254;50.956;7.010;2022-08-19T13:40:45;15.10;;;8.53;;
5273;SDS011;56254;50.956;7.010;2022-08-19T13:43:12;18.57;;;8.70;;
5273;SDS011;56254;50.956;7.010;2022-08-19T13:45:38;15.73;;;8.53;;
5273;SDS011;56254;50.956;7.010;2022-08-19T13:48:05;17.13;;;8.60;;
5273;SDS011;56254;50.956;7.010;2022-08-19T13:50:33;9.80;;;8.00;;
5273;SDS011;56254;50.956;7.010;2022-08-19T13:53:02;12.90;;;7.70;;
5273;SDS011;56254;50.956;7.010;2022-08-19T13:55:29;9.00;;;7.10;;
5273;SDS011;56254;50.956;7.010;2022-08-19T13:57:57;8.73;;;5.93;;
5273;SDS011;56254;50.956;7.010;2022-08-19T14:00:27;10.97;;;6.80;;
5273;SDS011;56254;50.956;7.010;2022-08-19T14:02:55;12.17;;;7.17;;
5273;SDS011;56254;50.956;7.010;2022-08-19T14:05:23;12.33;;;5.80;;
5273;SDS011;56254;50.956;7.010;2022-08-19T14:07:50;12.83;;;5.70;;
5273;SDS011;56254;50.956;7.010;2022-08-19T14:10:16;9.80;;;6.60;;
5273;SDS011;56254;50.956;7.010;2022-08-19T14:12:42;14.33;;;7.57;;
5273;SDS011;56254;50.956;7.010;2022-08-19T14:15:08;9.83;;;5.90;;
5273;SDS011;56254;50.956;7.010;2022-08-19T14:17:37;7.70;;;5.97;;
5273;SDS011;56254;50.956;7.010;2022-08-19T14:20:04;9.13;;;5.93;;
5273;SDS011;56254;50.956;7.010;2022-08-19T14:22:35;7.33;;;5.80;;
5273;SDS011;56254;50.956;7.010;2022-08-19T14:25:03;13.83;;;6.63;;
5273;SDS011;56254;50.956;7.010;2022-08-19T14:27:36;16.90;;;6.13;;
5273;SDS011;56254;50.956;7.010;2022-08-19T14:30:04;9.73;;;6.00;;
5273;SDS011;56254;50.956;7.010;2022-08-19T14:32:32;11.63;;;6.37;;
5273;SDS011;56254;50.956;7.010;2022-08-19T14:34:59;20.83;;;6.47;;
5273;SDS011;56254;50.956;7.010;2022-08-19T14:37:24;10.43;;;6.50;;
5273;SDS011;56254;50.956;7.010;2022-08-19T14:39:50;9.13;;;6.13;;
5273;SDS011;56254;50.956;7.010;2022-08-19T14:42:16;12.60;;;8.07;;
5273;SDS011;56254;50.956;7.010;2022-08-19T14:44:42;10.33;;;7.43;;
5273;SDS011;56254;50.956;7.010;2022-08-19T14:47:08;9.13;;;6.27;;
5273;SDS011;56254;50.956;7.010;2022-08-19T14:49:35;17.60;;;7.13;;
5273;SDS011;56254;50.956;7.010;2022-08-19T14:52:01;12.80;;;6.50;;
5273;SDS011;56254;50.956;7.010;2022-08-19T14:54:28;9.90;;;5.23;;
5273;SDS011;56254;50.956;7.010;2022-08-19T14:56:54;7.87;;;5.47;;
5273;SDS011;56254;50.956;7.010;2022-08-19T14:59:20;9.37;;;4.80;;